sensor_id;sensor_type;location;lat;lon;timestamp;pressure;altitude;pressure_sealevel;temperature;humidity
596;BME280;19946;49.306;11.350;2022-11-20T00:02:35;95782.22;;;-1.60;100.00
596;BME280;19946;49.306;11.350;2022-11-20T00:09:58;95712.19;;;-1.81;100.00
596;BME280;19946;49.306;11.350;2022-11-20T00:13:20;95824.72;;;-1.11;100.00
596;BME280;19946;49.306;11.350;2022-11-20T00:16:23;95764.13;;;-1.53;100.00
596;BME280;19946;49.306;11.350;2022-11-20T00:19:29;95779.47;;;-1.38;100.00
596;BME280;19946;49.306;11.350;2022-11-20T00:22:30;95812.34;;;-1.18;100.00
596;BME280;19946;49.306;11.350;2022-11-20T00:25:33;95703.69;;;-1.80;100.00
596;BME280;19946;49.306;11.350;2022-11-20T00:28:35;95813.88;;;-1.14;100.00
596;BME280;19946;49.306;11.350;2022-11-20T00:31:36;95823.72;;;-1.08;100.00
596;BME280;19946;49.306;11.350;2022-11-20T00:34:36;95812.16;;;-1.14;100.00
596;BME280;19946;49.306;11.350;2022-11-20T00:37:36;95825.69;;;-1.13;100.00
596;BME280;19946;49.306;11.350;2022-11-20T00:40:37;95819.97;;;-1.18;100.00
596;BME280;19946;49.306;11.350;2022-11-20T00:43:37;95822.69;;;-1.21;100.00
596;BME280;19946;49.306;11.350;2022-11-20T00:50:03;95819.00;;;-1.16;100.00
596;BME280;19946;49.306;11.350;2022-11-20T02:06:49;95811.31;;;-1.14;100.00
596;BME280;19946;49.306;11.350;2022-11-20T03:22:04;95780.81;;;-0.97;100.00
596;BME280;19946;49.306;11.350;2022-11-20T03:25:04;95769.75;;;-0.96;100.00
596;BME280;19946;49.306;11.350;2022-11-20T03:35:08;95772.34;;;-0.80;100.00
596;BME280;19946;49.306;11.350;2022-11-20T03:41:51;95778.38;;;-0.65;100.00
596;BME280;19946;49.306;11.350;2022-11-20T03:44:54;95760.88;;;-0.71;100.00
596;BME280;19946;49.306;11.350;2022-11-20T03:55:13;95761.50;;;-0.66;100.00
596;BME280;19946;49.306;11.350;2022-11-20T03:58:13;95777.91;;;-0.56;100.00
596;BME280;19946;49.306;11.350;2022-11-20T04:04:30;95727.56;;;-0.83;100.00
596;BME280;19946;49.306;11.350;2022-11-20T04:07:30;95764.03;;;-0.51;100.00
596;BME280;19946;49.306;11.350;2022-11-20T04:10:30;95707.22;;;-0.83;100.00
596;BME280;19946;49.306;11.350;2022-11-20T04:13:46;95779.06;;;-0.46;100.00
596;BME280;19946;49.306;11.350;2022-11-20T04:16:46;95772.00;;;-0.41;100.00
596;BME280;19946;49.306;11.350;2022-11-20T04:19:47;95778.38;;;-0.32;100.00
596;BME280;19946;49.306;11.350;2022-11-20T04:22:54;95768.81;;;-0.29;100.00
596;BME280;19946;49.306;11.350;2022-11-20T04:26:03;95733.03;;;-0.57;100.00
596;BME280;19946;49.306;11.350;2022-11-20T04:29:04;95715.25;;;-0.57;100.00
596;BME280;19946;49.306;11.350;2022-11-20T04:32:05;95722.19;;;-0.61;100.00
596;BME280;19946;49.306;11.350;2022-11-20T04:35:05;95741.81;;;-0.47;100.00
596;BME280;19946;49.306;11.350;2022-11-20T04:38:08;95773.50;;;-0.37;100.00
596;BME280;19946;49.306;11.350;2022-11-20T04:41:13;95767.81;;;-0.42;100.00
596;BME280;19946;49.306;11.350;2022-11-20T04:44:14;95729.19;;;-0.49;100.00
596;BME280;19946;49.306;11.350;2022-11-20T04:47:29;95744.94;;;-0.42;100.00
596;BME280;19946;49.306;11.350;2022-11-20T04:50:30;95711.78;;;-0.56;100.00
596;BME280;19946;49.306;11.350;2022-11-20T04:57:21;95758.56;;;-0.27;100.00
596;BME280;19946;49.306;11.350;2022-11-20T05:00:28;95691.44;;;-0.72;100.00
596;BME280;19946;49.306;11.350;2022-11-20T05:03:29;95655.00;;;-0.88;100.00
596;BME280;19946;49.306;11.350;2022-11-20T05:06:29;95759.41;;;-0.27;100.00
596;BME280;19946;49.306;11.350;2022-11-20T05:09:30;95768.09;;;-0.31;100.00
596;BME280;19946;49.306;11.350;2022-11-20T05:12:31;95756.94;;;-0.28;100.00
596;BME280;19946;49.306;11.350;2022-11-20T05:15:32;95753.13;;;-0.53;100.00
596;BME280;19946;49.306;11.350;2022-11-20T05:18:33;95683.81;;;-1.05;100.00
596;BME280;19946;49.306;11.350;2022-11-20T05:21:35;95640.63;;;-1.38;100.00
596;BME280;19946;49.306;11.350;2022-11-20T05:24:35;95644.63;;;-1.17;100.00
596;BME280;19946;49.306;11.350;2022-11-20T05:27:36;95748.28;;;-0.57;100.00
596;BME280;19946;49.306;11.350;2022-11-20T05:30:36;95760.25;;;-0.59;100.00
596;BME280;19946;49.306;11.350;2022-11-20T05:33:39;95703.22;;;-0.87;100.00
596;BME280;19946;49.306;11.350;2022-11-20T05:36:40;95697.88;;;-0.82;100.00
596;BME280;19946;49.306;11.350;2022-11-20T05:39:40;95752.31;;;-0.53;100.00
596;BME280;19946;49.306;11.350;2022-11-20T05:42:40;95742.47;;;-0.59;100.00
596;BME280;19946;49.306;11.350;2022-11-20T05:45:52;95681.97;;;-0.86;100.00
596;BME280;19946;49.306;11.350;2022-11-20T05:49:05;95757.56;;;-0.56;100.00
596;BME280;19946;49.306;11.350;2022-11-20T05:52:05;95636.38;;;-1.37;100.00
596;BME280;19946;49.306;11.350;2022-11-20T05:55:06;95685.00;;;-0.95;100.00
596;BME280;19946;49.306;11.350;2022-11-20T05:58:07;95657.59;;;-1.05;100.00
596;BME280;19946;49.306;11.350;2022-11-20T06:04:10;95734.44;;;-0.36;100.00
596;BME280;19946;49.306;11.350;2022-11-20T06:07:16;95720.47;;;-0.60;100.00
596;BME280;19946;49.306;11.350;2022-11-20T06:10:16;95713.00;;;-0.79;100.00
596;BME280;19946;49.306;11.350;2022-11-20T06:13:16;95734.50;;;-0.53;100.00
596;BME280;19946;49.306;11.350;2022-11-20T06:16:18;95771.13;;;-0.40;100.00
596;BME280;19946;49.306;11.350;2022-11-20T06:19:42;95745.44;;;-0.20;100.00
596;BME280;19946;49.306;11.350;2022-11-20T06:22:42;95755.06;;;-0.25;100.00
596;BME280;19946;49.306;11.350;2022-11-20T06:25:43;95694.44;;;-0.81;100.00
596;BME280;19946;49.306;11.350;2022-11-20T06:28:43;95705.16;;;-0.92;100.00
596;BME280;19946;49.306;11.350;2022-11-20T06:31:49;95761.16;;;-0.60;100.00
596;BME280;19946;49.306;11.350;2022-11-20T06:34:49;95674.19;;;-0.98;100.00
596;BME280;19946;49.306;11.350;2022-11-20T06:37:50;95759.56;;;-0.30;100.00
596;BME280;19946;49.306;11.350;2022-11-20T06:40:50;95737.81;;;-0.35;100.00
596;BME280;19946;49.306;11.350;2022-11-20T06:43:59;95749.56;;;-0.17;100.00
596;BME280;19946;49.306;11.350;2022-11-20T06:47:01;95685.34;;;-0.54;100.00
596;BME280;19946;49.306;11.350;2022-11-20T06:50:01;95742.81;;;-0.18;100.00
596;BME280;19946;49.306;11.350;2022-11-20T06:53:03;95721.81;;;-0.38;100.00
596;BME280;19946;49.306;11.350;2022-11-20T06:56:04;95740.13;;;-0.15;100.00
596;BME280;19946;49.306;11.350;2022-11-20T06:59:06;95737.50;;;-0.14;100.00
596;BME280;19946;49.306;11.350;2022-11-20T07:02:11;95676.19;;;-0.41;100.00
596;BME280;19946;49.306;11.350;2022-11-20T07:12:52;95765.38;;;0.04;100.00
596;BME280;19946;49.306;11.350;2022-11-20T07:15:54;95744.69;;;-0.06;100.00
596;BME280;19946;49.306;11.350;2022-11-20T07:18:55;95763.44;;;0.09;100.00
596;BME280;19946;49.306;11.350;2022-11-20T07:21:55;95764.66;;;0.02;100.00
596;BME280;19946;49.306;11.350;2022-11-20T07:24:55;95771.06;;;0.09;100.00
596;BME280;19946;49.306;11.350;2022-11-20T07:27:59;95690.31;;;-0.35;100.00
596;BME280;19946;49.306;11.350;2022-11-20T07:31:18;95760.69;;;0.12;100.00
596;BME280;19946;49.306;11.350;2022-11-20T07:34:18;95706.22;;;-0.31;100.00
596;BME280;19946;49.306;11.350;2022-11-20T07:37:20;95774.16;;;0.14;100.00
596;BME280;19946;49.306;11.350;2022-11-20T07:40:20;95765.31;;;0.05;100.00
596;BME280;19946;49.306;11.350;2022-11-20T07:43:27;95704.59;;;-0.32;100.00
596;BME280;19946;49.306;11.350;2022-11-20T07:46:27;95677.00;;;-0.71;100.00
596;BME280;19946;49.306;11.350;2022-11-20T07:49:28;95779.75;;;-0.27;100.00
596;BME280;19946;49.306;11.350;2022-11-20T07:52:35;95772.94;;;-0.11;100.00
596;BME280;19946;49.306;11.350;2022-11-20T07:55:37;95650.91;;;-0.75;100.00
596;BME280;19946;49.306;11.350;2022-11-20T07:58:38;95783.91;;;-0.42;100.00
596;BME280;19946;49.306;11.350;2022-11-20T08:01:55;95777.03;;;-0.40;100.00
596;BME280;19946;49.306;11.350;2022-11-20T08:04:55;95774.44;;;-0.22;100.00
596;BME280;19946;49.306;11.350;2022-11-20T08:07:57;95770.31;;;-0.25;100.00
596;BME280;19946;49.306;11.350;2022-11-20T08:11:00;95670.91;;;-0.85;100.00
596;BME280;19946;49.306;11.350;2022-11-20T08:14:20;95724.84;;;-0.31;100.00
596;BME280;19946;49.306;11.350;2022-11-20T08:17:27;95796.00;;;0.02;100.00
596;BME280;19946;49.306;11.350;2022-11-20T08:20:34;95772.59;;;0.11;100.00
596;BME280;19946;49.306;11.350;2022-11-20T08:23:37;95743.22;;;-0.10;100.00
596;BME280;19946;49.306;11.350;2022-11-20T08:26:39;95661.88;;;-0.75;100.00
596;BME280;19946;49.306;11.350;2022-11-20T08:29:45;95680.38;;;-0.55;100.00
596;BME280;19946;49.306;11.350;2022-11-20T08:32:47;95741.03;;;-0.01;100.00
596;BME280;19946;49.306;11.350;2022-11-20T08:35:59;95718.81;;;0.02;100.00
596;BME280;19946;49.306;11.350;2022-11-20T08:39:12;95779.41;;;0.42;100.00
596;BME280;19946;49.306;11.350;2022-11-20T08:42:13;95799.13;;;0.39;100.00
596;BME280;19946;49.306;11.350;2022-11-20T08:45:13;95727.47;;;-0.48;100.00
596;BME280;19946;49.306;11.350;2022-11-20T08:48:14;95751.69;;;-0.25;100.00
596;BME280;19946;49.306;11.350;2022-11-20T08:51:24;95753.50;;;-0.12;100.00
596;BME280;19946;49.306;11.350;2022-11-20T08:54:25;95744.78;;;0.08;100.00
596;BME280;19946;49.306;11.350;2022-11-20T08:57:25;95749.00;;;0.39;100.00
596;BME280;19946;49.306;11.350;2022-11-20T09:00:26;95786.78;;;0.77;100.00
596;BME280;19946;49.306;11.350;2022-11-20T09:03:27;95752.66;;;0.79;100.00
596;BME280;19946;49.306;11.350;2022-11-20T09:06:27;95781.00;;;0.89;100.00
596;BME280;19946;49.306;11.350;2022-11-20T09:09:29;95776.44;;;0.80;100.00
596;BME280;19946;49.306;11.350;2022-11-20T09:12:29;95705.44;;;0.44;100.00
596;BME280;19946;49.306;11.350;2022-11-20T09:15:31;95666.00;;;0.21;100.00
596;BME280;19946;49.306;11.350;2022-11-20T09:25:37;95713.88;;;0.60;100.00
596;BME280;19946;49.306;11.350;2022-11-20T09:28:38;95744.13;;;0.80;100.00
596;BME280;19946;49.306;11.350;2022-11-20T09:31:47;95695.56;;;0.67;100.00
596;BME280;19946;49.306;11.350;2022-11-20T09:34:50;95724.19;;;0.72;100.00
596;BME280;19946;49.306;11.350;2022-11-20T09:37:50;95764.75;;;1.20;100.00
596;BME280;19946;49.306;11.350;2022-11-20T09:41:05;95781.53;;;1.38;100.00
596;BME280;19946;49.306;11.350;2022-11-20T09:47:48;95659.72;;;0.56;100.00
596;BME280;19946;49.306;11.350;2022-11-20T09:51:00;95776.31;;;1.25;100.00
596;BME280;19946;49.306;11.350;2022-11-20T09:54:20;95769.94;;;1.32;100.00
596;BME280;19946;49.306;11.350;2022-11-20T09:57:28;95741.06;;;1.32;100.00
596;BME280;19946;49.306;11.350;2022-11-20T10:01:14;95755.53;;;1.74;100.00
596;BME280;19946;49.306;11.350;2022-11-20T10:04:16;95754.16;;;1.82;100.00
596;BME280;19946;49.306;11.350;2022-11-20T10:18:44;95752.63;;;1.80;100.00
596;BME280;19946;49.306;11.350;2022-11-20T10:32:00;95740.66;;;1.95;100.00
596;BME280;19946;49.306;11.350;2022-11-20T12:00:55;95624.09;;;2.33;100.00
596;BME280;19946;49.306;11.350;2022-11-20T12:05:02;95735.53;;;2.22;100.00
596;BME280;19946;49.306;11.350;2022-11-20T12:14:56;95671.28;;;0.62;100.00
596;BME280;19946;49.306;11.350;2022-11-20T12:18:01;95681.75;;;0.71;100.00
596;BME280;19946;49.306;11.350;2022-11-20T12:30:57;95690.44;;;1.12;100.00
596;BME280;19946;49.306;11.350;2022-11-20T12:51:30;95726.16;;;1.40;100.00
596;BME280;19946;49.306;11.350;2022-11-20T12:54:46;95744.09;;;1.38;100.00
596;BME280;19946;49.306;11.350;2022-11-20T12:57:56;95731.44;;;1.37;100.00
596;BME280;19946;49.306;11.350;2022-11-20T13:01:25;95684.97;;;1.18;100.00
596;BME280;19946;49.306;11.350;2022-11-20T13:08:23;95695.81;;;1.35;100.00
596;BME280;19946;49.306;11.350;2022-11-20T13:18:04;95704.91;;;1.95;100.00
596;BME280;19946;49.306;11.350;2022-11-20T13:21:19;95605.22;;;1.42;100.00
596;BME280;19946;49.306;11.350;2022-11-20T13:24:25;95698.63;;;1.86;100.00
596;BME280;19946;49.306;11.350;2022-11-20T13:28:04;95700.50;;;1.70;100.00
596;BME280;19946;49.306;11.350;2022-11-20T13:31:31;95701.09;;;1.73;100.00
596;BME280;19946;49.306;11.350;2022-11-20T13:34:34;95666.91;;;1.49;100.00
596;BME280;19946;49.306;11.350;2022-11-20T13:37:38;95691.03;;;1.72;100.00
596;BME280;19946;49.306;11.350;2022-11-20T13:40:56;95700.03;;;1.63;100.00
596;BME280;19946;49.306;11.350;2022-11-20T13:44:09;95668.19;;;1.42;100.00
596;BME280;19946;49.306;11.350;2022-11-20T13:47:27;95617.97;;;1.01;100.00
596;BME280;19946;49.306;11.350;2022-11-20T13:50:55;95700.25;;;1.60;100.00
596;BME280;19946;49.306;11.350;2022-11-20T13:54:42;95697.38;;;1.65;100.00
596;BME280;19946;49.306;11.350;2022-11-20T13:58:04;95698.78;;;1.56;100.00
596;BME280;19946;49.306;11.350;2022-11-20T14:01:10;95692.84;;;1.70;100.00
596;BME280;19946;49.306;11.350;2022-11-20T14:04:15;95708.63;;;1.62;100.00
596;BME280;19946;49.306;11.350;2022-11-20T14:07:20;95705.53;;;1.57;100.00
596;BME280;19946;49.306;11.350;2022-11-20T14:10:26;95687.31;;;1.35;100.00
596;BME280;19946;49.306;11.350;2022-11-20T14:13:27;95678.69;;;1.23;100.00
596;BME280;19946;49.306;11.350;2022-11-20T14:20:50;95648.19;;;0.93;100.00
596;BME280;19946;49.306;11.350;2022-11-20T14:32:08;95705.09;;;1.22;100.00
596;BME280;19946;49.306;11.350;2022-11-20T14:35:18;95698.09;;;1.26;100.00
596;BME280;19946;49.306;11.350;2022-11-20T14:38:25;95649.66;;;0.97;100.00
596;BME280;19946;49.306;11.350;2022-11-20T14:41:26;95707.56;;;1.38;100.00
596;BME280;19946;49.306;11.350;2022-11-20T14:44:33;95706.09;;;1.48;100.00
596;BME280;19946;49.306;11.350;2022-11-20T14:47:40;95636.28;;;1.08;100.00
596;BME280;19946;49.306;11.350;2022-11-20T14:50:40;95589.94;;;0.73;100.00
596;BME280;19946;49.306;11.350;2022-11-20T14:53:41;95642.97;;;1.09;100.00
596;BME280;19946;49.306;11.350;2022-11-20T14:56:42;95704.28;;;1.50;100.00
596;BME280;19946;49.306;11.350;2022-11-20T15:03:15;95639.00;;;0.91;100.00
596;BME280;19946;49.306;11.350;2022-11-20T15:06:29;95623.88;;;0.88;100.00
596;BME280;19946;49.306;11.350;2022-11-20T15:09:32;95698.44;;;1.34;100.00
596;BME280;19946;49.306;11.350;2022-11-20T15:12:38;95692.44;;;1.49;100.00
596;BME280;19946;49.306;11.350;2022-11-20T15:15:49;95631.25;;;1.06;100.00
596;BME280;19946;49.306;11.350;2022-11-20T15:18:50;95677.59;;;1.27;100.00
596;BME280;19946;49.306;11.350;2022-11-20T15:22:04;95644.44;;;0.99;100.00
596;BME280;19946;49.306;11.350;2022-11-20T15:25:34;95705.09;;;1.36;100.00
596;BME280;19946;49.306;11.350;2022-11-20T15:32:08;95646.38;;;0.95;100.00
596;BME280;19946;49.306;11.350;2022-11-20T15:35:18;95646.09;;;1.00;100.00
596;BME280;19946;49.306;11.350;2022-11-20T15:38:18;95695.97;;;1.32;100.00
596;BME280;19946;49.306;11.350;2022-11-20T15:41:27;95692.69;;;1.30;100.00
596;BME280;19946;49.306;11.350;2022-11-20T15:44:28;95681.06;;;1.26;100.00
596;BME280;19946;49.306;11.350;2022-11-20T15:47:32;95683.53;;;1.28;100.00
596;BME280;19946;49.306;11.350;2022-11-20T15:50:37;95629.06;;;1.00;100.00
596;BME280;19946;49.306;11.350;2022-11-20T15:53:39;95634.97;;;1.01;100.00
596;BME280;19946;49.306;11.350;2022-11-20T15:56:40;95610.03;;;0.92;100.00
596;BME280;19946;49.306;11.350;2022-11-20T15:59:40;95624.88;;;0.99;100.00
596;BME280;19946;49.306;11.350;2022-11-20T16:02:41;95629.16;;;1.13;100.00
596;BME280;19946;49.306;11.350;2022-11-20T16:05:46;95691.22;;;1.55;100.00
596;BME280;19946;49.306;11.350;2022-11-20T16:08:46;95635.63;;;1.19;100.00
596;BME280;19946;49.306;11.350;2022-11-20T16:11:49;95703.88;;;1.42;100.00
596;BME280;19946;49.306;11.350;2022-11-20T16:14:50;95675.94;;;1.40;100.00
596;BME280;19946;49.306;11.350;2022-11-20T16:18:20;95630.88;;;1.27;100.00
596;BME280;19946;49.306;11.350;2022-11-20T16:21:23;95648.25;;;1.34;100.00
596;BME280;19946;49.306;11.350;2022-11-20T16:24:33;95677.78;;;1.65;100.00
596;BME280;19946;49.306;11.350;2022-11-20T16:27:45;95649.88;;;1.50;100.00
596;BME280;19946;49.306;11.350;2022-11-20T16:30:46;95652.00;;;1.70;100.00
596;BME280;19946;49.306;11.350;2022-11-20T16:37:11;95599.53;;;1.52;100.00
596;BME280;19946;49.306;11.350;2022-11-20T16:44:45;95614.31;;;1.61;100.00
596;BME280;19946;49.306;11.350;2022-11-20T16:47:46;95570.25;;;1.30;100.00
596;BME280;19946;49.306;11.350;2022-11-20T16:50:48;95669.88;;;1.97;100.00
596;BME280;19946;49.306;11.350;2022-11-20T16:53:49;95668.34;;;1.94;100.00
596;BME280;19946;49.306;11.350;2022-11-20T16:56:50;95647.56;;;1.86;100.00
596;BME280;19946;49.306;11.350;2022-11-20T16:59:52;95631.34;;;1.87;100.00
596;BME280;19946;49.306;11.350;2022-11-20T17:02:53;95668.91;;;2.12;100.00
596;BME280;19946;49.306;11.350;2022-11-20T17:05:53;95645.00;;;1.86;100.00
596;BME280;19946;49.306;11.350;2022-11-20T17:08:55;95672.41;;;1.97;100.00
596;BME280;19946;49.306;11.350;2022-11-20T17:11:55;95613.75;;;1.56;100.00
596;BME280;19946;49.306;11.350;2022-11-20T17:14:55;95623.31;;;1.52;100.00
596;BME280;19946;49.306;11.350;2022-11-20T17:17:56;95656.63;;;1.77;100.00
596;BME280;19946;49.306;11.350;2022-11-20T17:20:56;95645.53;;;1.64;100.00
596;BME280;19946;49.306;11.350;2022-11-20T17:24:04;95655.50;;;1.55;100.00
596;BME280;19946;49.306;11.350;2022-11-20T17:27:05;95603.09;;;1.22;100.00
596;BME280;19946;49.306;11.350;2022-11-20T17:30:06;95612.25;;;1.39;100.00
596;BME280;19946;49.306;11.350;2022-11-20T17:33:06;95649.00;;;1.63;100.00
596;BME280;19946;49.306;11.350;2022-11-20T17:36:08;95635.00;;;1.56;100.00
596;BME280;19946;49.306;11.350;2022-11-20T17:39:14;95653.66;;;1.57;100.00
596;BME280;19946;49.306;11.350;2022-11-20T17:42:17;95637.03;;;1.37;100.00
596;BME280;19946;49.306;11.350;2022-11-20T17:45:26;95493.41;;;0.40;100.00
596;BME280;19946;49.306;11.350;2022-11-20T17:48:29;95592.75;;;0.97;100.00
596;BME280;19946;49.306;11.350;2022-11-20T17:51:39;95646.63;;;1.19;100.00
596;BME280;19946;49.306;11.350;2022-11-20T17:54:41;95586.56;;;0.72;100.00
596;BME280;19946;49.306;11.350;2022-11-20T17:57:41;95542.34;;;0.45;100.00
596;BME280;19946;49.306;11.350;2022-11-20T18:01:04;95573.19;;;0.69;100.00
596;BME280;19946;49.306;11.350;2022-11-20T18:04:05;95627.31;;;1.15;100.00
596;BME280;19946;49.306;11.350;2022-11-20T18:07:05;95602.66;;;0.87;100.00
596;BME280;19946;49.306;11.350;2022-11-20T18:10:06;95565.28;;;0.59;100.00
596;BME280;19946;49.306;11.350;2022-11-20T18:13:08;95558.00;;;0.67;100.00
596;BME280;19946;49.306;11.350;2022-11-20T18:16:08;95609.31;;;1.04;100.00
596;BME280;19946;49.306;11.350;2022-11-20T18:19:10;95617.22;;;0.99;100.00
596;BME280;19946;49.306;11.350;2022-11-20T18:22:13;95623.44;;;0.95;100.00
596;BME280;19946;49.306;11.350;2022-11-20T18:25:14;95593.22;;;0.75;100.00
596;BME280;19946;49.306;11.350;2022-11-20T18:28:14;95533.44;;;0.38;100.00
596;BME280;19946;49.306;11.350;2022-11-20T18:31:17;95558.00;;;0.53;100.00
596;BME280;19946;49.306;11.350;2022-11-20T18:34:17;95597.28;;;1.06;100.00
596;BME280;19946;49.306;11.350;2022-11-20T18:37:19;95527.63;;;0.64;100.00
596;BME280;19946;49.306;11.350;2022-11-20T18:40:19;95557.97;;;0.82;100.00
596;BME280;19946;49.306;11.350;2022-11-20T18:43:19;95583.00;;;0.89;100.00
596;BME280;19946;49.306;11.350;2022-11-20T18:46:38;95572.88;;;1.02;100.00
596;BME280;19946;49.306;11.350;2022-11-20T18:49:41;95565.25;;;0.88;100.00
596;BME280;19946;49.306;11.350;2022-11-20T18:52:42;95558.63;;;0.85;100.00
596;BME280;19946;49.306;11.350;2022-11-20T18:55:46;95565.38;;;0.86;100.00
596;BME280;19946;49.306;11.350;2022-11-20T18:58:46;95506.31;;;0.37;100.00
596;BME280;19946;49.306;11.350;2022-11-20T19:01:47;95580.00;;;0.83;100.00
596;BME280;19946;49.306;11.350;2022-11-20T19:04:48;95552.97;;;0.80;100.00
596;BME280;19946;49.306;11.350;2022-11-20T19:07:48;95539.25;;;0.68;100.00
596;BME280;19946;49.306;11.350;2022-11-20T19:10:51;95563.25;;;0.79;100.00
596;BME280;19946;49.306;11.350;2022-11-20T19:13:51;95558.91;;;0.81;100.00
596;BME280;19946;49.306;11.350;2022-11-20T19:16:52;95493.25;;;0.43;100.00
596;BME280;19946;49.306;11.350;2022-11-20T19:26:37;95480.56;;;0.56;100.00
596;BME280;19946;49.306;11.350;2022-11-20T19:32:54;95535.03;;;0.96;100.00
596;BME280;19946;49.306;11.350;2022-11-20T19:49:21;95527.94;;;1.28;100.00
596;BME280;19946;49.306;11.350;2022-11-20T19:58:56;95495.66;;;1.14;100.00
596;BME280;19946;49.306;11.350;2022-11-20T20:09:07;95502.13;;;1.32;100.00
596;BME280;19946;49.306;11.350;2022-11-20T20:12:10;95387.00;;;0.72;100.00
596;BME280;19946;49.306;11.350;2022-11-20T20:42:22;95467.75;;;1.25;100.00
596;BME280;19946;49.306;11.350;2022-11-20T20:45:23;95448.66;;;1.31;100.00
596;BME280;19946;49.306;11.350;2022-11-20T20:58:13;95504.81;;;1.83;100.00
596;BME280;19946;49.306;11.350;2022-11-20T21:04:30;95440.44;;;1.53;100.00
596;BME280;19946;49.306;11.350;2022-11-20T21:07:31;95497.47;;;1.91;100.00
596;BME280;19946;49.306;11.350;2022-11-20T21:10:31;95498.38;;;1.90;100.00
